Terminal Aerodrome Forecast
Issued by NWS

Home | Current Version | Previous Version | Text Only | Print | Product List | Glossary On
Versions: 1 2 3 4 5 6 7 8 9 10 11 12 13 14 15 16 17 18 19 20 21
878
FTUS43 KPAH 170744 AAA
TAFCGI
TAF AMD
KCGI 170744Z 1708/1806 23012KT P6SM SCT007
     FM171000 24012KT P6SM FEW030 SCT150
     FM171900 26010KT P6SM FEW025 BKN035
     FM180300 30007KT P6SM BKN030=

USA.gov is the U.S. government's official web portal to all federal, state and local government web resources and services.